Time;durP1;ratioP1;P1;durP2;ratioP2;P2;SDS_P1;SDS_P2;PMS_P1;PMS_P2;Temp;Humidity;BMP_temperature;BMP_pressure;BME280_temperature;BME280_humidity;BME280_pressure;Samples;Min_cycle;Max_cycle;Signal;HPM_P1;HPM_P2
2024/03/31 00:02:12;;;;;;;;;;;23.30;44.80;;;;;;5068592;28;19917;-43
2024/03/31 00:04:40;;;;;;;;;;;23.30;44.90;;;;;;5067572;28;19908;-42
2024/03/31 00:07:06;;;;;;;;;;;23.30;45.00;;;;;;5066086;28;19913;-44
2024/03/31 00:09:32;;;;;;;;;;;23.20;45.00;;;;;;5065458;28;19908;-44
2024/03/31 00:11:59;;;;;;;;;;;23.30;45.10;;;;;;5070342;28;20033;-42
2024/03/31 00:14:25;;;;;;;;;;;23.20;45.10;;;;;;5070945;28;19917;-42
2024/03/31 00:16:52;;;;;;;;;;;23.20;45.20;;;;;;5069188;28;19935;-43
2024/03/31 00:19:17;;;;;;;;;;;23.20;45.00;;;;;;5070281;28;19909;-41
2024/03/31 00:21:43;;;;;;;;;;;23.20;44.90;;;;;;5070956;28;19921;-45
2024/03/31 00:24:09;;;;;;;;;;;23.20;44.90;;;;;;5077384;28;19913;-41
2024/03/31 00:26:35;;;;;;;;;;;23.20;44.70;;;;;;5071134;28;19967;-42
2024/03/31 00:29:01;;;;;;;;;;;23.20;44.70;;;;;;5071627;28;19913;-43
2024/03/31 00:31:27;;;;;;;;;;;23.20;44.80;;;;;;5073957;28;19920;-40
2024/03/31 00:33:53;;;;;;;;;;;23.10;45.10;;;;;;5074923;28;20004;-45
2024/03/31 00:36:19;;;;;;;;;;;23.10;45.20;;;;;;5072624;28;19912;-47
2024/03/31 00:38:45;;;;;;;;;;;23.10;45.30;;;;;;5073651;28;19948;-40
2024/03/31 00:41:10;;;;;;;;;;;23.10;45.30;;;;;;5054743;28;19924;-43
2024/03/31 00:43:36;;;;;;;;;;;23.10;45.50;;;;;;5082112;28;20021;-43
2024/03/31 00:46:02;;;;;;;;;;;23.00;45.30;;;;;;5080938;28;19922;-45
2024/03/31 00:48:28;;;;;;;;;;;23.00;45.10;;;;;;5080886;28;19982;-42
2024/03/31 00:50:54;;;;;;;;;;;23.00;44.90;;;;;;5081201;28;19916;-46
2024/03/31 00:53:20;;;;;;;;;;;23.00;44.80;;;;;;5073201;28;19916;-44
2024/03/31 00:55:46;;;;;;;;;;;22.90;44.60;;;;;;5066698;28;19912;-43
2024/03/31 00:58:12;;;;;;;;;;;22.90;44.70;;;;;;5068416;28;19919;-42
2024/03/31 01:00:38;;;;;;;;;;;22.90;44.70;;;;;;5073730;28;19942;-46
2024/03/31 01:03:04;;;;;;;;;;;22.90;44.70;;;;;;5070839;28;19912;-42
2024/03/31 01:05:30;;;;;;;;;;;22.90;44.70;;;;;;5074076;28;20003;-40
2024/03/31 01:07:56;;;;;;;;;;;22.90;45.00;;;;;;5066827;28;19955;-41
2024/03/31 01:10:22;;;;;;;;;;;22.90;44.80;;;;;;5068964;28;19913;-42
2024/03/31 01:12:48;;;;;;;;;;;22.80;44.80;;;;;;5067270;28;19909;-42
2024/03/31 01:15:14;;;;;;;;;;;22.80;44.90;;;;;;5071535;28;19975;-43
2024/03/31 01:17:40;;;;;;;;;;;22.80;44.90;;;;;;5065741;28;19956;-48
2024/03/31 01:20:06;;;;;;;;;;;22.80;44.70;;;;;;5066945;28;19916;-41
2024/03/31 01:22:33;;;;;;;;;;;22.80;44.50;;;;;;5070314;28;19979;-45
2024/03/31 01:24:58;;;;;;;;;;;22.80;44.30;;;;;;5072391;28;19913;-44
2024/03/31 01:27:24;;;;;;;;;;;22.70;44.30;;;;;;5079879;28;19965;-44
2024/03/31 01:29:50;;;;;;;;;;;22.70;44.20;;;;;;5082068;28;19952;-42
2024/03/31 01:32:16;;;;;;;;;;;22.70;44.40;;;;;;5075415;28;19936;-42
2024/03/31 01:34:44;;;;;;;;;;;22.70;44.90;;;;;;5078599;28;19909;-42
2024/03/31 01:37:10;;;;;;;;;;;22.70;44.40;;;;;;5080124;28;19923;-42
2024/03/31 01:39:36;;;;;;;;;;;22.60;44.40;;;;;;5079654;28;19913;-44
2024/03/31 01:42:02;;;;;;;;;;;22.60;44.50;;;;;;5081079;28;19928;-42
2024/03/31 01:44:28;;;;;;;;;;;22.60;44.40;;;;;;5083015;28;19920;-47
2024/03/31 01:46:54;;;;;;;;;;;22.60;44.40;;;;;;5080524;28;19908;-43
2024/03/31 01:49:20;;;;;;;;;;;22.60;44.60;;;;;;5083961;28;19923;-45
2024/03/31 01:51:45;;;;;;;;;;;22.50;44.50;;;;;;5084584;28;20375;-45
2024/03/31 01:54:11;;;;;;;;;;;22.50;44.40;;;;;;5077302;28;19998;-44
2024/03/31 01:56:37;;;;;;;;;;;22.50;44.40;;;;;;5084343;28;19920;-46
2024/03/31 01:59:03;;;;;;;;;;;22.50;44.70;;;;;;5084310;28;20517;-47
2024/03/31 02:01:29;;;;;;;;;;;22.50;44.40;;;;;;5084101;28;19916;-45
2024/03/31 02:03:55;;;;;;;;;;;22.40;44.40;;;;;;5084352;28;19934;-46
2024/03/31 02:06:21;;;;;;;;;;;22.40;44.40;;;;;;5080123;28;20467;-47
2024/03/31 02:08:47;;;;;;;;;;;22.40;44.50;;;;;;5081264;28;19909;-47
2024/03/31 02:11:13;;;;;;;;;;;22.40;44.50;;;;;;5082888;28;19915;-44
2024/03/31 02:13:39;;;;;;;;;;;22.40;44.50;;;;;;5082942;28;19914;-48
2024/03/31 02:16:05;;;;;;;;;;;22.30;44.50;;;;;;5083294;28;20396;-44
2024/03/31 02:18:30;;;;;;;;;;;22.30;44.50;;;;;;5083202;28;19916;-45
2024/03/31 02:20:56;;;;;;;;;;;22.30;44.60;;;;;;5083933;28;19975;-43
2024/03/31 02:23:22;;;;;;;;;;;22.30;44.70;;;;;;5067257;28;19913;-43
2024/03/31 02:25:48;;;;;;;;;;;22.20;44.60;;;;;;5078930;28;19915;-47
2024/03/31 02:28:14;;;;;;;;;;;22.20;44.60;;;;;;5083015;28;19919;-46
2024/03/31 02:30:41;;;;;;;;;;;22.20;44.60;;;;;;5083650;28;19987;-43
2024/03/31 02:33:06;;;;;;;;;;;22.20;44.60;;;;;;5083035;28;19912;-47
2024/03/31 02:35:32;;;;;;;;;;;22.20;44.70;;;;;;5080813;28;19918;-43
2024/03/31 02:37:58;;;;;;;;;;;22.10;44.60;;;;;;5087251;28;19912;-47
2024/03/31 02:40:24;;;;;;;;;;;22.10;44.70;;;;;;5077926;28;19909;-46
2024/03/31 02:42:50;;;;;;;;;;;22.10;44.70;;;;;;5082994;28;19920;-43
2024/03/31 02:45:16;;;;;;;;;;;22.10;44.70;;;;;;5079836;28;20715;-43
2024/03/31 02:47:42;;;;;;;;;;;22.10;44.80;;;;;;5083543;28;19930;-42
2024/03/31 02:50:08;;;;;;;;;;;22.00;44.70;;;;;;5081737;28;19908;-46
2024/03/31 02:52:34;;;;;;;;;;;22.00;44.80;;;;;;5080368;28;19919;-45
2024/03/31 02:55:00;;;;;;;;;;;22.00;44.80;;;;;;5067367;28;19956;-42
2024/03/31 02:57:26;;;;;;;;;;;22.00;44.80;;;;;;5069138;28;19921;-42
2024/03/31 02:59:51;;;;;;;;;;;22.00;44.90;;;;;;5075671;28;20280;-43
2024/03/31 03:02:17;;;;;;;;;;;21.90;44.80;;;;;;5073494;28;20380;-41
2024/03/31 03:04:43;;;;;;;;;;;21.90;44.90;;;;;;5072455;28;19935;-44
2024/03/31 03:07:09;;;;;;;;;;;21.90;44.90;;;;;;5072921;28;19922;-44
2024/03/31 03:09:35;;;;;;;;;;;21.90;45.50;;;;;;5072568;28;20377;-49
2024/03/31 03:12:01;;;;;;;;;;;21.80;44.90;;;;;;5064502;28;19913;-44
2024/03/31 03:14:27;;;;;;;;;;;21.80;44.90;;;;;;5071745;28;19912;-46
2024/03/31 03:16:53;;;;;;;;;;;21.80;45.00;;;;;;5070517;28;19908;-46
2024/03/31 03:19:19;;;;;;;;;;;21.80;45.00;;;;;;5070434;28;19919;-42
2024/03/31 03:21:45;;;;;;;;;;;21.70;44.90;;;;;;5070648;28;19947;-41
2024/03/31 03:24:11;;;;;;;;;;;21.70;45.00;;;;;;5079782;28;19979;-44
2024/03/31 03:26:37;;;;;;;;;;;21.70;45.00;;;;;;5079327;28;19926;-42
2024/03/31 03:29:02;;;;;;;;;;;21.70;45.00;;;;;;5072699;28;19920;-47
2024/03/31 03:31:29;;;;;;;;;;;21.70;45.10;;;;;;5072316;28;19913;-42
2024/03/31 03:33:54;;;;;;;;;;;21.60;45.10;;;;;;5078196;28;20376;-42
2024/03/31 03:36:20;;;;;;;;;;;21.60;45.10;;;;;;5081383;28;19916;-43
2024/03/31 03:38:47;;;;;;;;;;;21.60;45.10;;;;;;5077529;28;20003;-42
2024/03/31 03:41:12;;;;;;;;;;;21.60;45.20;;;;;;5074613;28;19916;-47
2024/03/31 03:43:38;;;;;;;;;;;21.50;45.20;;;;;;5075731;28;19915;-45
2024/03/31 03:46:05;;;;;;;;;;;21.50;45.20;;;;;;5081558;28;20371;-45
2024/03/31 03:48:31;;;;;;;;;;;21.50;45.20;;;;;;5081566;28;19923;-45
2024/03/31 03:51:00;;;;;;;;;;;21.50;45.30;;;;;;5081661;28;19980;-42
2024/03/31 03:53:26;;;;;;;;;;;21.50;45.30;;;;;;5077428;28;19916;-42
2024/03/31 03:55:52;;;;;;;;;;;21.50;45.30;;;;;;5070953;28;20711;-42
2024/03/31 03:58:18;;;;;;;;;;;21.40;45.30;;;;;;5072899;28;19908;-43
2024/03/31 04:00:43;;;;;;;;;;;21.40;45.40;;;;;;5069184;28;19923;-46
2024/03/31 04:03:09;;;;;;;;;;;21.40;45.40;;;;;;5072480;28;19918;-41
2024/03/31 04:05:35;;;;;;;;;;;21.40;45.40;;;;;;5081712;28;19912;-43
2024/03/31 04:08:01;;;;;;;;;;;21.30;45.40;;;;;;5081585;28;20367;-41
2024/03/31 04:10:27;;;;;;;;;;;21.30;45.40;;;;;;5072612;28;19909;-43
2024/03/31 04:12:53;;;;;;;;;;;21.30;45.50;;;;;;5077559;28;19909;-45
2024/03/31 04:15:19;;;;;;;;;;;21.30;45.50;;;;;;5081036;28;19916;-43
2024/03/31 04:17:45;;;;;;;;;;;21.30;45.50;;;;;;5081179;28;19920;-44
2024/03/31 04:20:11;;;;;;;;;;;21.30;45.60;;;;;;5080218;28;19940;-43
2024/03/31 04:22:37;;;;;;;;;;;21.20;45.60;;;;;;5081919;28;19970;-44
2024/03/31 04:25:03;;;;;;;;;;;21.20;45.60;;;;;;5068049;28;19935;-44
2024/03/31 04:27:29;;;;;;;;;;;21.20;45.70;;;;;;5071671;28;19913;-44
2024/03/31 04:29:55;;;;;;;;;;;21.10;45.60;;;;;;5068257;28;19927;-44
2024/03/31 04:32:21;;;;;;;;;;;21.20;45.80;;;;;;5068374;28;19940;-45
2024/03/31 04:34:46;;;;;;;;;;;21.10;45.70;;;;;;5073241;28;19954;-42
2024/03/31 04:37:12;;;;;;;;;;;21.10;45.80;;;;;;5071153;28;19923;-44
2024/03/31 04:39:38;;;;;;;;;;;21.10;45.80;;;;;;5070495;28;19915;-46
2024/03/31 04:42:04;;;;;;;;;;;21.00;45.80;;;;;;5067907;28;19924;-45
2024/03/31 04:44:30;;;;;;;;;;;21.00;45.80;;;;;;5067042;28;19933;-44
2024/03/31 04:46:56;;;;;;;;;;;21.00;45.90;;;;;;5068576;28;19924;-43
2024/03/31 04:49:22;;;;;;;;;;;21.00;45.90;;;;;;5070994;28;19912;-43
2024/03/31 04:51:48;;;;;;;;;;;21.00;45.90;;;;;;5070563;28;19965;-46
2024/03/31 04:54:15;;;;;;;;;;;20.90;45.90;;;;;;5078390;28;19908;-42
2024/03/31 04:56:40;;;;;;;;;;;20.90;46.00;;;;;;5075122;28;19922;-44
2024/03/31 04:59:07;;;;;;;;;;;20.90;46.00;;;;;;5080931;28;19908;-46
2024/03/31 05:01:33;;;;;;;;;;;20.90;46.00;;;;;;5070453;28;19924;-43
2024/03/31 05:03:59;;;;;;;;;;;20.90;46.00;;;;;;5071889;28;19913;-46
2024/03/31 05:06:25;;;;;;;;;;;20.80;46.00;;;;;;5086118;28;20379;-43
2024/03/31 05:08:51;;;;;;;;;;;20.80;46.20;;;;;;5083476;28;19931;-43
2024/03/31 05:11:17;;;;;;;;;;;20.80;46.20;;;;;;5094087;28;19934;-45
2024/03/31 05:13:43;;;;;;;;;;;20.80;46.20;;;;;;5078878;28;19935;-42
2024/03/31 05:16:09;;;;;;;;;;;20.80;46.20;;;;;;5086221;28;19912;-43
2024/03/31 05:18:35;;;;;;;;;;;20.70;46.20;;;;;;5086423;28;19928;-42
2024/03/31 05:21:02;;;;;;;;;;;20.70;46.20;;;;;;5077960;28;19920;-43
2024/03/31 05:23:28;;;;;;;;;;;20.70;46.30;;;;;;5075130;28;19912;-44
2024/03/31 05:25:55;;;;;;;;;;;20.70;46.30;;;;;;5075236;28;19915;-47
2024/03/31 05:28:21;;;;;;;;;;;20.70;46.30;;;;;;5077515;28;20408;-44
2024/03/31 05:30:47;;;;;;;;;;;20.60;46.30;;;;;;5078325;28;19956;-43
2024/03/31 05:33:13;;;;;;;;;;;20.60;46.40;;;;;;5077141;28;19919;-43
2024/03/31 05:35:42;;;;;;;;;;;20.60;46.40;;;;;;5075778;28;19908;-45
2024/03/31 05:38:08;;;;;;;;;;;20.60;46.40;;;;;;5073720;28;19912;-42
2024/03/31 05:40:44;;;;;;;;;;;20.60;46.40;;;;;;5075449;28;19916;-44
2024/03/31 05:43:09;;;;;;;;;;;20.60;46.50;;;;;;5068469;28;19912;-43
2024/03/31 05:45:37;;;;;;;;;;;20.50;46.40;;;;;;5074461;28;19928;-46
2024/03/31 05:48:06;;;;;;;;;;;20.50;46.50;;;;;;5067525;28;20438;-43
2024/03/31 05:50:32;;;;;;;;;;;20.50;46.50;;;;;;5074307;28;19915;-42
2024/03/31 05:52:58;;;;;;;;;;;20.50;46.50;;;;;;5078743;28;19912;-44
2024/03/31 05:55:24;;;;;;;;;;;20.50;46.60;;;;;;5067398;28;19919;-44
2024/03/31 05:57:50;;;;;;;;;;;20.40;46.60;;;;;;5073790;28;20522;-45
2024/03/31 06:00:16;;;;;;;;;;;20.40;46.60;;;;;;5084107;28;19978;-42
2024/03/31 06:02:41;;;;;;;;;;;20.40;46.60;;;;;;5076713;28;19908;-41
2024/03/31 06:05:07;;;;;;;;;;;20.40;46.70;;;;;;5078187;28;19960;-45
2024/03/31 06:07:33;;;;;;;;;;;20.30;46.60;;;;;;5072719;28;19920;-44
2024/03/31 06:09:59;;;;;;;;;;;20.30;46.70;;;;;;5073926;28;19913;-48
2024/03/31 06:12:25;;;;;;;;;;;20.30;46.70;;;;;;5083250;28;20007;-47
2024/03/31 06:14:51;;;;;;;;;;;20.30;46.70;;;;;;5084231;28;19919;-43
2024/03/31 06:17:20;;;;;;;;;;;20.30;46.80;;;;;;5074498;28;19908;-44
2024/03/31 06:19:46;;;;;;;;;;;20.30;46.80;;;;;;5073772;28;19951;-43
2024/03/31 06:22:12;;;;;;;;;;;20.20;46.80;;;;;;5067055;28;19924;-44
2024/03/31 06:24:38;;;;;;;;;;;20.20;46.80;;;;;;5073053;28;19912;-43
2024/03/31 06:27:04;;;;;;;;;;;20.20;46.90;;;;;;5076502;28;19919;-42
2024/03/31 06:29:29;;;;;;;;;;;20.10;46.80;;;;;;5070380;28;19931;-45
2024/03/31 06:31:55;;;;;;;;;;;20.10;46.90;;;;;;5075909;28;21058;-43
2024/03/31 06:34:21;;;;;;;;;;;20.10;46.90;;;;;;5073211;28;19916;-43
2024/03/31 06:36:47;;;;;;;;;;;20.10;47.00;;;;;;5070210;28;19954;-43
2024/03/31 06:39:13;;;;;;;;;;;20.10;47.00;;;;;;5073244;28;19913;-46
2024/03/31 06:41:39;;;;;;;;;;;20.10;47.00;;;;;;5072080;28;19916;-43
2024/03/31 06:44:05;;;;;;;;;;;20.00;47.00;;;;;;5073198;28;20050;-47
2024/03/31 06:46:31;;;;;;;;;;;20.00;47.00;;;;;;5070640;28;19943;-44
2024/03/31 06:48:58;;;;;;;;;;;20.00;47.00;;;;;;5072461;28;19952;-42
2024/03/31 06:51:24;;;;;;;;;;;20.00;47.10;;;;;;5072785;28;19920;-43
2024/03/31 06:53:50;;;;;;;;;;;20.00;47.10;;;;;;5080240;28;19955;-42
2024/03/31 06:56:17;;;;;;;;;;;19.90;47.10;;;;;;5074714;28;19913;-44
2024/03/31 06:58:43;;;;;;;;;;;19.90;47.10;;;;;;5073244;28;19913;-45
2024/03/31 07:01:09;;;;;;;;;;;19.90;47.20;;;;;;5072915;28;19917;-42
2024/03/31 07:03:35;;;;;;;;;;;19.90;47.20;;;;;;5082664;28;19919;-42
2024/03/31 07:06:02;;;;;;;;;;;19.90;47.30;;;;;;5075942;28;19916;-42
2024/03/31 07:08:28;;;;;;;;;;;19.80;47.20;;;;;;5072906;28;19909;-42
2024/03/31 07:10:54;;;;;;;;;;;19.80;47.20;;;;;;5081057;28;19983;-42
2024/03/31 07:13:20;;;;;;;;;;;19.80;47.30;;;;;;5075650;28;19991;-43
2024/03/31 07:15:45;;;;;;;;;;;19.80;47.30;;;;;;5075946;28;19916;-43
2024/03/31 07:18:11;;;;;;;;;;;19.80;47.30;;;;;;5068643;28;20357;-44
2024/03/31 07:20:37;;;;;;;;;;;19.80;47.40;;;;;;5076247;28;19918;-42
2024/03/31 07:23:03;;;;;;;;;;;19.70;47.30;;;;;;5068645;28;19931;-42
2024/03/31 07:25:30;;;;;;;;;;;19.70;47.40;;;;;;5073681;28;19916;-41
2024/03/31 07:27:55;;;;;;;;;;;19.70;47.40;;;;;;5070606;28;19916;-42
2024/03/31 07:30:21;;;;;;;;;;;19.70;47.50;;;;;;5073110;28;19939;-42
2024/03/31 07:32:47;;;;;;;;;;;19.70;47.50;;;;;;5074504;28;19915;-44
2024/03/31 07:35:13;;;;;;;;;;;19.70;47.50;;;;;;5069630;28;20356;-42
2024/03/31 07:37:39;;;;;;;;;;;19.60;47.40;;;;;;5071558;28;19943;-44
2024/03/31 07:40:05;;;;;;;;;;;19.60;47.50;;;;;;5071466;28;19919;-44
2024/03/31 07:42:31;;;;;;;;;;;19.60;47.50;;;;;;5071757;28;19916;-44
2024/03/31 07:44:57;;;;;;;;;;;19.60;47.50;;;;;;5069855;28;19917;-42
2024/03/31 07:47:23;;;;;;;;;;;19.50;47.50;;;;;;5069997;28;19958;-42
2024/03/31 07:49:49;;;;;;;;;;;19.50;47.60;;;;;;5073950;28;19912;-43
2024/03/31 07:52:15;;;;;;;;;;;19.50;47.60;;;;;;5073084;28;19919;-42
2024/03/31 07:54:41;;;;;;;;;;;19.50;47.60;;;;;;5070327;28;19908;-43
2024/03/31 07:57:07;;;;;;;;;;;19.50;47.70;;;;;;5072265;28;19918;-46
2024/03/31 07:59:33;;;;;;;;;;;19.40;47.60;;;;;;5081959;28;19908;-46
2024/03/31 08:01:59;;;;;;;;;;;19.40;47.60;;;;;;5080699;28;20274;-42
2024/03/31 08:04:25;;;;;;;;;;;19.40;47.70;;;;;;5080268;28;19913;-42
2024/03/31 08:06:51;;;;;;;;;;;19.40;48.20;;;;;;5083155;28;19941;-42
2024/03/31 08:09:17;;;;;;;;;;;19.50;48.40;;;;;;5075786;28;19912;-42
2024/03/31 08:11:44;;;;;;;;;;;19.50;48.30;;;;;;5075355;28;19915;-42
2024/03/31 08:14:11;;;;;;;;;;;19.50;48.20;;;;;;5074248;28;19912;-44
2024/03/31 08:16:37;;;;;;;;;;;19.50;48.20;;;;;;5081963;28;20321;-42
2024/03/31 08:19:03;;;;;;;;;;;19.50;48.20;;;;;;5074570;28;19915;-43
2024/03/31 08:21:29;;;;;;;;;;;19.50;48.20;;;;;;5080882;28;19926;-41
2024/03/31 08:23:54;;;;;;;;;;;19.40;48.10;;;;;;5075480;28;19975;-42
2024/03/31 08:26:20;;;;;;;;;;;19.40;48.10;;;;;;5070225;28;19923;-42
2024/03/31 08:28:46;;;;;;;;;;;19.40;48.10;;;;;;5068609;28;19969;-45
2024/03/31 08:31:12;;;;;;;;;;;19.40;48.10;;;;;;5071624;28;19956;-41
2024/03/31 08:33:38;;;;;;;;;;;19.40;48.20;;;;;;5071272;28;20003;-44
2024/03/31 08:36:04;;;;;;;;;;;19.40;48.60;;;;;;5072682;28;20658;-42
2024/03/31 08:38:30;;;;;;;;;;;19.40;48.60;;;;;;5071308;28;19912;-44
2024/03/31 08:41:05;;;;;;;;;;;19.40;48.60;;;;;;5066412;28;19929;-44
2024/03/31 08:43:33;;;;;;;;;;;19.40;48.50;;;;;;5070548;28;20656;-43
2024/03/31 08:45:59;;;;;;;;;;;19.40;48.60;;;;;;5069412;28;19943;-42
2024/03/31 08:48:25;;;;;;;;;;;19.40;48.60;;;;;;5069105;28;19912;-43
2024/03/31 08:50:51;;;;;;;;;;;19.40;48.40;;;;;;5069255;28;19924;-44
2024/03/31 08:53:17;;;;;;;;;;;19.40;48.40;;;;;;5066466;28;20472;-44
2024/03/31 08:55:43;;;;;;;;;;;19.40;48.40;;;;;;5070591;28;19979;-43
2024/03/31 08:58:09;;;;;;;;;;;19.30;48.40;;;;;;5071644;28;19958;-41
2024/03/31 09:00:40;;;;;;;;;;;19.30;48.60;;;;;;5064214;28;19935;-41
2024/03/31 09:03:05;;;;;;;;;;;19.40;48.90;;;;;;5070650;28;19912;-43
2024/03/31 09:05:31;;;;;;;;;;;19.40;48.90;;;;;;5083701;28;19919;-42
2024/03/31 09:07:57;;;;;;;;;;;19.40;48.90;;;;;;5069247;28;19980;-44
2024/03/31 09:10:23;;;;;;;;;;;19.40;48.80;;;;;;5078409;28;19961;-44
2024/03/31 09:12:49;;;;;;;;;;;19.40;49.40;;;;;;5074896;28;19962;-42
2024/03/31 09:15:15;;;;;;;;;;;19.40;48.80;;;;;;5072436;28;19912;-46
2024/03/31 09:17:41;;;;;;;;;;;19.40;48.80;;;;;;5076341;28;20277;-43
2024/03/31 09:20:07;;;;;;;;;;;19.40;48.70;;;;;;5074471;28;20035;-45
2024/03/31 09:22:33;;;;;;;;;;;19.30;48.60;;;;;;5065245;28;19917;-44
2024/03/31 09:24:59;;;;;;;;;;;19.30;48.70;;;;;;5066365;28;19908;-42
2024/03/31 09:27:25;;;;;;;;;;;19.30;49.00;;;;;;5068262;28;20025;-43
2024/03/31 09:29:51;;;;;;;;;;;19.40;49.10;;;;;;5066028;28;19909;-42
2024/03/31 09:32:17;;;;;;;;;;;19.40;49.10;;;;;;5066909;28;20007;-44
2024/03/31 09:34:43;;;;;;;;;;;19.40;49.00;;;;;;5069361;28;19913;-42
2024/03/31 09:37:10;;;;;;;;;;;19.40;49.00;;;;;;5067529;28;19940;-44
2024/03/31 09:39:36;;;;;;;;;;;19.40;49.00;;;;;;5067792;28;19939;-44
2024/03/31 09:42:02;;;;;;;;;;;19.40;48.90;;;;;;5071283;28;19928;-42
2024/03/31 09:44:28;;;;;;;;;;;19.30;48.80;;;;;;5070100;28;19920;-41
2024/03/31 09:46:54;;;;;;;;;;;19.30;48.80;;;;;;5065326;28;19943;-43
2024/03/31 09:49:30;;;;;;;;;;;19.30;48.80;;;;;;5069469;28;19919;-45
2024/03/31 09:51:56;;;;;;;;;;;19.30;49.20;;;;;;5072619;28;19916;-45
2024/03/31 09:54:23;;;;;;;;;;;19.40;49.30;;;;;;5074424;28;19919;-43
2024/03/31 09:56:53;;;;;;;;;;;19.40;49.20;;;;;;5073393;28;19983;-43
2024/03/31 09:59:19;;;;;;;;;;;19.40;49.30;;;;;;5082395;28;20034;-42
2024/03/31 10:01:45;;;;;;;;;;;19.40;49.20;;;;;;5074131;28;19959;-45
2024/03/31 10:04:21;;;;;;;;;;;19.40;49.20;;;;;;5066567;28;19924;-47
2024/03/31 10:06:47;;;;;;;;;;;19.40;49.10;;;;;;5066279;28;19909;-43
2024/03/31 10:09:13;;;;;;;;;;;19.30;49.10;;;;;;5072118;28;20036;-41
2024/03/31 10:11:40;;;;;;;;;;;19.30;49.00;;;;;;5084792;28;19908;-44
2024/03/31 10:14:05;;;;;;;;;;;19.30;49.10;;;;;;5076095;28;20369;-42
2024/03/31 10:16:31;;;;;;;;;;;19.30;49.40;;;;;;5073160;28;19919;-47
2024/03/31 10:18:57;;;;;;;;;;;19.40;49.40;;;;;;5073723;28;19912;-46
2024/03/31 10:21:23;;;;;;;;;;;19.40;49.40;;;;;;5074939;28;19927;-49
2024/03/31 10:23:49;;;;;;;;;;;19.40;49.40;;;;;;5081393;28;19978;-43
2024/03/31 10:26:15;;;;;;;;;;;19.40;49.40;;;;;;5064654;28;19916;-46
2024/03/31 10:28:44;;;;;;;;;;;19.30;49.40;;;;;;5073092;28;19923;-44
2024/03/31 10:31:09;;;;;;;;;;;19.30;49.30;;;;;;5066680;28;19940;-49
2024/03/31 10:33:35;;;;;;;;;;;19.30;49.30;;;;;;5065993;28;19919;-43
2024/03/31 10:36:01;;;;;;;;;;;19.30;49.20;;;;;;5066055;28;20655;-43
2024/03/31 10:38:27;;;;;;;;;;;19.30;49.50;;;;;;5073528;28;19912;-45
2024/03/31 10:40:53;;;;;;;;;;;19.40;49.60;;;;;;5072562;28;20388;-42
2024/03/31 10:43:19;;;;;;;;;;;19.40;49.60;;;;;;5073791;28;19966;-43
2024/03/31 10:45:45;;;;;;;;;;;19.40;49.50;;;;;;5075001;28;19974;-44
2024/03/31 10:48:11;;;;;;;;;;;19.40;49.50;;;;;;5069503;28;19979;-43
2024/03/31 10:50:43;;;;;;;;;;;19.30;49.50;;;;;;5072518;28;19961;-43
2024/03/31 10:53:09;;;;;;;;;;;19.30;49.50;;;;;;5073401;28;19968;-42
2024/03/31 10:55:35;;;;;;;;;;;19.30;49.40;;;;;;5070834;28;19912;-43
2024/03/31 10:58:01;;;;;;;;;;;19.30;49.30;;;;;;5072515;28;20404;-45
2024/03/31 11:00:27;;;;;;;;;;;19.30;49.50;;;;;;5072487;28;19912;-44
2024/03/31 11:02:53;;;;;;;;;;;19.30;49.70;;;;;;5076313;28;19923;-48
2024/03/31 11:05:22;;;;;;;;;;;19.40;49.70;;;;;;5073399;28;19939;-45
2024/03/31 11:07:48;;;;;;;;;;;19.40;49.60;;;;;;5071733;28;19915;-47
2024/03/31 11:10:15;;;;;;;;;;;19.30;49.70;;;;;;5069425;28;19912;-45
2024/03/31 11:12:41;;;;;;;;;;;19.30;49.60;;;;;;5065613;28;19979;-44
2024/03/31 11:15:08;;;;;;;;;;;19.30;49.50;;;;;;5073396;28;19982;-43
2024/03/31 11:17:33;;;;;;;;;;;19.30;49.50;;;;;;5073023;28;19908;-49
2024/03/31 11:20:00;;;;;;;;;;;19.30;49.60;;;;;;5072245;28;19931;-45
2024/03/31 11:22:26;;;;;;;;;;;19.30;49.70;;;;;;5075397;28;19978;-50
2024/03/31 11:24:51;;;;;;;;;;;19.30;49.70;;;;;;5072268;28;20402;-43
2024/03/31 11:27:18;;;;;;;;;;;19.40;49.80;;;;;;5071581;28;19925;-44
2024/03/31 11:29:44;;;;;;;;;;;19.40;49.80;;;;;;5071474;28;20717;-45
2024/03/31 11:32:10;;;;;;;;;;;19.30;49.70;;;;;;5073439;28;19913;-47
2024/03/31 11:34:36;;;;;;;;;;;19.30;49.70;;;;;;5074533;28;20019;-46
2024/03/31 11:37:02;;;;;;;;;;;19.30;49.60;;;;;;5070077;28;19919;-43
2024/03/31 11:39:32;;;;;;;;;;;19.30;49.60;;;;;;5072553;28;19950;-46
2024/03/31 11:41:58;;;;;;;;;;;19.30;49.70;;;;;;5072153;28;19921;-47
2024/03/31 11:44:23;;;;;;;;;;;19.30;49.90;;;;;;5070926;28;19923;-46
2024/03/31 11:46:49;;;;;;;;;;;19.30;49.80;;;;;;5068833;28;19958;-43
2024/03/31 11:49:16;;;;;;;;;;;19.40;49.90;;;;;;5072035;28;19920;-43
2024/03/31 11:51:42;;;;;;;;;;;19.30;49.90;;;;;;5071543;28;19912;-46
2024/03/31 11:54:08;;;;;;;;;;;19.30;49.80;;;;;;5069565;28;19912;-44
2024/03/31 11:56:35;;;;;;;;;;;19.30;49.80;;;;;;5065487;28;19934;-45
2024/03/31 11:59:01;;;;;;;;;;;19.30;49.80;;;;;;5063927;28;19917;-45
2024/03/31 12:01:27;;;;;;;;;;;19.30;49.80;;;;;;5079925;28;19923;-46
2024/03/31 12:03:53;;;;;;;;;;;19.30;49.80;;;;;;5075483;28;19912;-45
2024/03/31 12:06:20;;;;;;;;;;;19.30;50.00;;;;;;5073186;28;19919;-46
2024/03/31 12:08:46;;;;;;;;;;;19.40;50.00;;;;;;5072430;28;19913;-45
2024/03/31 12:11:12;;;;;;;;;;;19.40;50.00;;;;;;5074015;28;20289;-48
2024/03/31 12:13:37;;;;;;;;;;;19.30;49.90;;;;;;5081675;28;19912;-44
2024/03/31 12:16:04;;;;;;;;;;;19.30;49.90;;;;;;5088931;28;20028;-47
2024/03/31 12:18:29;;;;;;;;;;;19.30;49.90;;;;;;5081492;28;19912;-43
2024/03/31 12:20:55;;;;;;;;;;;19.30;49.80;;;;;;5075798;28;19917;-43
2024/03/31 12:23:21;;;;;;;;;;;19.30;49.90;;;;;;5079582;28;19938;-45
2024/03/31 12:25:47;;;;;;;;;;;19.30;50.10;;;;;;5073330;28;19913;-45
2024/03/31 12:28:13;;;;;;;;;;;19.40;50.10;;;;;;5078956;28;19916;-43
2024/03/31 12:30:42;;;;;;;;;;;19.40;50.10;;;;;;5081647;28;19908;-46
2024/03/31 12:33:08;;;;;;;;;;;19.40;50.10;;;;;;5065191;28;19909;-43
2024/03/31 12:35:34;;;;;;;;;;;19.40;50.00;;;;;;5074506;28;19919;-43
2024/03/31 12:38:00;;;;;;;;;;;19.30;50.00;;;;;;5076011;28;19971;-43
2024/03/31 12:40:26;;;;;;;;;;;19.30;50.00;;;;;;5068290;28;19916;-43
2024/03/31 12:42:53;;;;;;;;;;;19.30;49.90;;;;;;5072120;28;19920;-47
2024/03/31 12:45:20;;;;;;;;;;;19.30;49.80;;;;;;5073894;28;19927;-46
2024/03/31 12:47:47;;;;;;;;;;;19.30;49.90;;;;;;5068570;28;19917;-43
2024/03/31 12:50:12;;;;;;;;;;;19.30;50.00;;;;;;5068026;28;19909;-44
2024/03/31 12:52:38;;;;;;;;;;;19.30;50.10;;;;;;5067589;28;19931;-45
2024/03/31 12:55:08;;;;;;;;;;;19.40;50.30;;;;;;5074219;28;19912;-45
2024/03/31 12:57:34;;;;;;;;;;;19.40;50.20;;;;;;5067808;28;19919;-46
2024/03/31 13:00:01;;;;;;;;;;;19.40;50.10;;;;;;5068679;28;19908;-47
2024/03/31 13:02:27;;;;;;;;;;;19.40;50.10;;;;;;5070800;28;19924;-46
2024/03/31 13:04:53;;;;;;;;;;;19.40;50.10;;;;;;5069317;28;19908;-46
2024/03/31 13:07:21;;;;;;;;;;;19.40;50.10;;;;;;5071198;28;19934;-46
2024/03/31 13:09:47;;;;;;;;;;;19.30;50.00;;;;;;5076164;28;19913;-48
2024/03/31 13:12:12;;;;;;;;;;;19.30;50.00;;;;;;5080272;28;19908;-47
2024/03/31 13:14:38;;;;;;;;;;;19.30;49.90;;;;;;5081211;28;19908;-43
2024/03/31 13:17:04;;;;;;;;;;;19.40;50.20;;;;;;5074177;28;19912;-47
2024/03/31 13:19:30;;;;;;;;;;;19.40;50.40;;;;;;5074138;28;19948;-48
2024/03/31 13:21:58;;;;;;;;;;;19.40;50.20;;;;;;5080954;28;19920;-47
2024/03/31 13:24:24;;;;;;;;;;;19.40;50.20;;;;;;5077650;28;19935;-46
2024/03/31 13:26:50;;;;;;;;;;;19.40;50.20;;;;;;5077624;28;20312;-45
2024/03/31 13:29:17;;;;;;;;;;;19.40;50.10;;;;;;5082224;28;19912;-43
2024/03/31 13:31:42;;;;;;;;;;;19.40;50.10;;;;;;5078252;28;19916;-46
2024/03/31 13:34:08;;;;;;;;;;;19.40;50.10;;;;;;5084708;28;19912;-46
2024/03/31 13:36:34;;;;;;;;;;;19.40;50.10;;;;;;5077985;28;19934;-48
2024/03/31 13:39:00;;;;;;;;;;;19.40;50.10;;;;;;5081483;28;19936;-47
2024/03/31 13:41:26;;;;;;;;;;;19.40;50.20;;;;;;5084234;28;19921;-44
2024/03/31 13:43:52;;;;;;;;;;;19.50;50.30;;;;;;5072274;28;19908;-42
2024/03/31 13:46:18;;;;;;;;;;;19.50;50.30;;;;;;5075589;28;19909;-43
2024/03/31 13:48:44;;;;;;;;;;;19.50;50.30;;;;;;5084767;28;20003;-45
2024/03/31 13:51:10;;;;;;;;;;;19.50;50.30;;;;;;5083499;28;19919;-47
2024/03/31 13:53:36;;;;;;;;;;;19.50;50.30;;;;;;5079969;28;19924;-43
2024/03/31 13:56:01;;;;;;;;;;;19.50;50.20;;;;;;5073927;28;19934;-42
2024/03/31 13:58:27;;;;;;;;;;;19.50;50.20;;;;;;5067776;28;20681;-45
2024/03/31 14:00:53;;;;;;;;;;;19.50;50.10;;;;;;5066146;28;19999;-46
2024/03/31 14:03:19;;;;;;;;;;;19.50;50.10;;;;;;5082280;28;19912;-45
2024/03/31 14:05:46;;;;;;;;;;;19.50;50.00;;;;;;5079076;28;19935;-45
2024/03/31 14:08:12;;;;;;;;;;;19.50;50.00;;;;;;5073870;28;19916;-47
2024/03/31 14:10:38;;;;;;;;;;;19.50;49.90;;;;;;5081859;28;19912;-48